createdAt,value
2022-11-02T00:00:54.206Z,100216.95
2022-11-02T00:01:56.176Z,100223.11
2022-11-02T00:02:58.714Z,100224.09
2022-11-02T00:04:00.702Z,100225.89
2022-11-02T00:05:02.858Z,100220.66
2022-11-02T00:06:05.806Z,100228.27
2022-11-02T00:07:07.695Z,100226.33
2022-11-02T00:08:10.712Z,100222.75
2022-11-02T00:09:12.699Z,100226.13
2022-11-02T00:10:16.792Z,100220.84
2022-11-02T00:11:18.680Z,100217.97
2022-11-02T00:12:21.496Z,100216.19
2022-11-02T00:13:23.480Z,100214.45
2022-11-02T00:14:25.431Z,100216.19
2022-11-02T00:15:30.421Z,100212.72
2022-11-02T00:16:32.837Z,100205.70
2022-11-02T00:17:36.986Z,100205.78
2022-11-02T00:18:40.309Z,100207.60
2022-11-02T00:19:42.233Z,100198.09
2022-11-02T00:20:44.562Z,100206.13
2022-11-02T00:21:46.838Z,100198.31
2022-11-02T00:22:52.611Z,100205.28
2022-11-02T00:23:57.165Z,100202.83
2022-11-02T00:25:02.110Z,100189.21
2022-11-02T00:26:04.401Z,100197.72
2022-11-02T00:27:07.018Z,100194.28
2022-11-02T00:28:09.666Z,100197.75
2022-11-02T00:29:12.829Z,100197.80
2022-11-02T00:30:15.187Z,100196.95
2022-11-02T00:31:17.216Z,100198.77
2022-11-02T00:32:19.305Z,100198.72
2022-11-02T00:33:21.202Z,100192.72
2022-11-02T00:34:24.020Z,100193.56
2022-11-02T00:35:26.992Z,100195.13
2022-11-02T00:36:28.978Z,100196.78
2022-11-02T00:37:30.879Z,100192.47
2022-11-02T00:38:32.909Z,100183.80
2022-11-02T00:39:34.778Z,100191.70
2022-11-02T00:40:37.376Z,100183.89
2022-11-02T00:41:39.367Z,100190.86
2022-11-02T00:42:41.265Z,100189.05
2022-11-02T00:43:43.249Z,100188.41
2022-11-02T00:44:45.137Z,100187.65
2022-11-02T00:45:47.033Z,100191.19
2022-11-02T00:46:49.020Z,100194.62
2022-11-02T00:47:50.902Z,100196.09
2022-11-02T00:48:52.797Z,100196.78
2022-11-02T00:49:55.347Z,100193.83
2022-11-02T00:50:57.392Z,100196.49
2022-11-02T00:51:59.270Z,100194.49
2022-11-02T00:53:01.142Z,100188.41
2022-11-02T00:54:03.036Z,100192.84
2022-11-02T00:55:06.361Z,100186.72
2022-11-02T00:56:09.117Z,100187.82
2022-11-02T00:57:10.994Z,100186.51
2022-11-02T00:58:15.000Z,100183.25
2022-11-02T00:59:16.903Z,100186.03
2022-11-02T01:00:19.643Z,100184.34
2022-11-02T01:01:21.828Z,100185.43
2022-11-02T01:02:24.187Z,100181.97
2022-11-02T01:03:26.324Z,100186.41
2022-11-02T01:04:29.555Z,100181.89
2022-11-02T01:05:31.452Z,100189.67
2022-11-02T01:06:33.442Z,100189.82
2022-11-02T01:07:35.937Z,100190.83
2022-11-02T01:08:38.149Z,100190.75
2022-11-02T01:09:40.803Z,100191.68
2022-11-02T01:10:45.635Z,100194.38
2022-11-02T01:11:46.988Z,100195.30
2022-11-02T01:12:49.560Z,100196.19
2022-11-02T01:13:52.479Z,100191.91
2022-11-02T01:14:55.228Z,100192.03
2022-11-02T01:15:57.117Z,100187.18
2022-11-02T01:16:59.150Z,100191.34
2022-11-02T01:18:01.175Z,100186.03
2022-11-02T01:19:03.367Z,100194.84
2022-11-02T01:20:06.439Z,100184.45
2022-11-02T01:21:08.453Z,100187.95
2022-11-02T01:22:11.098Z,100187.10
2022-11-02T01:23:13.004Z,100187.10
2022-11-02T01:24:14.889Z,100187.10
2022-11-02T01:25:16.879Z,100189.72
2022-11-02T01:26:21.247Z,100185.30
2022-11-02T01:27:23.530Z,100187.03
2022-11-02T01:28:26.343Z,100188.72
2022-11-02T01:29:28.237Z,100189.56
2022-11-02T01:30:30.237Z,100182.48
2022-11-02T01:31:32.105Z,100179.66
2022-11-02T01:32:34.686Z,100184.75
2022-11-02T01:33:40.137Z,100170.64
2022-11-02T01:34:42.050Z,100184.66
2022-11-02T01:35:45.227Z,100182.77
2022-11-02T01:36:47.368Z,100172.30
2022-11-02T01:37:49.269Z,100180.19
2022-11-02T01:38:51.300Z,100170.64
2022-11-02T01:39:53.179Z,100184.47
2022-11-02T01:40:55.147Z,100182.00
2022-11-02T01:41:57.017Z,100175.72
2022-11-02T01:42:58.910Z,100177.45
2022-11-02T01:44:05.005Z,100170.40
2022-11-02T01:45:09.550Z,100165.16
2022-11-02T01:46:15.853Z,100173.74
2022-11-02T01:47:30.313Z,100170.23
2022-11-02T01:48:48.273Z,100170.23
2022-11-02T01:49:56.495Z,100178.05
2022-11-02T01:51:03.158Z,100178.05
2022-11-02T01:52:18.081Z,100167.61
2022-11-02T01:53:20.479Z,100173.62
2022-11-02T01:54:26.392Z,100160.52
2022-11-02T01:55:32.121Z,100158.66
2022-11-02T01:56:35.446Z,100158.75
2022-11-02T01:57:40.815Z,100153.42
2022-11-02T01:58:46.523Z,100152.70
2022-11-02T02:00:01.530Z,100149.23
2022-11-02T02:01:03.630Z,100148.34
2022-11-02T02:02:09.393Z,100144.88
2022-11-02T02:03:17.219Z,100143.98
2022-11-02T02:04:20.176Z,100139.73
2022-11-02T02:05:24.152Z,100139.73
2022-11-02T02:06:27.225Z,100144.28
2022-11-02T02:07:31.242Z,100147.07
2022-11-02T02:08:36.766Z,100142.76
2022-11-02T02:09:39.732Z,100147.99
2022-11-02T02:10:41.771Z,100148.20
2022-11-02T02:11:43.676Z,100155.17
2022-11-02T02:12:46.909Z,100150.82
2022-11-02T02:13:49.246Z,100150.01
2022-11-02T02:14:52.835Z,100158.80
2022-11-02T02:16:08.859Z,100152.83
2022-11-02T02:17:43.573Z,100148.64
2022-11-02T02:20:11.346Z,100142.40
2022-11-02T02:21:26.471Z,100147.95
2022-11-02T02:22:53.602Z,100153.19
2022-11-02T02:24:17.093Z,100144.48
2022-11-02T02:25:28.970Z,100147.14
2022-11-02T02:26:52.985Z,100144.68
2022-11-02T02:28:21.912Z,100147.34
2022-11-02T02:29:39.650Z,100147.34
2022-11-02T02:30:48.218Z,100145.53
2022-11-02T02:31:57.548Z,100137.67
2022-11-02T02:34:26.671Z,100129.91
2022-11-02T02:35:38.567Z,100129.91
2022-11-02T02:36:50.071Z,100132.52
2022-11-02T02:38:02.811Z,100133.44
2022-11-02T02:39:11.663Z,100128.33
2022-11-02T02:40:17.736Z,100128.33
2022-11-02T02:41:40.286Z,100132.75
2022-11-02T02:42:55.033Z,100130.47
2022-11-02T02:44:00.040Z,100132.20
2022-11-02T02:45:11.879Z,100136.44
2022-11-02T02:46:23.457Z,100134.75
2022-11-02T02:47:29.352Z,100136.55
2022-11-02T02:48:33.731Z,100127.05
2022-11-02T02:49:42.486Z,100124.55
2022-11-02T02:50:57.113Z,100124.55
2022-11-02T02:52:00.005Z,100132.83
2022-11-02T02:53:05.170Z,100133.64
2022-11-02T02:54:10.851Z,100133.92
2022-11-02T02:55:17.133Z,100132.94
2022-11-02T02:56:22.959Z,100135.59
2022-11-02T02:57:28.780Z,100130.44
2022-11-02T02:58:34.553Z,100127.78
2022-11-02T02:59:42.224Z,100119.41
2022-11-02T03:00:45.227Z,100125.45
2022-11-02T03:01:47.782Z,100125.45
2022-11-02T03:02:51.462Z,100119.44
2022-11-02T03:03:53.723Z,100122.09
2022-11-02T03:04:55.622Z,100117.98
2022-11-02T03:07:20.760Z,100128.37
2022-11-02T03:08:23.763Z,100129.45
2022-11-02T03:09:38.201Z,100123.34
2022-11-02T03:10:55.812Z,100126.00
2022-11-02T03:12:18.301Z,100126.67
2022-11-02T03:13:42.514Z,100123.21
2022-11-02T03:15:13.879Z,100125.93
2022-11-02T03:16:28.964Z,100138.90
2022-11-02T03:18:07.186Z,100132.86
2022-11-02T03:19:24.873Z,100123.42
2022-11-02T03:20:50.353Z,100128.74
2022-11-02T03:22:01.613Z,100126.09
2022-11-02T03:23:16.998Z,100124.44
2022-11-02T03:24:28.648Z,100133.16
2022-11-02T03:25:32.556Z,100138.45
2022-11-02T03:28:04.296Z,100133.09
2022-11-02T03:29:19.914Z,100135.83
2022-11-02T03:30:25.267Z,100134.10
2022-11-02T03:31:53.358Z,100134.10
2022-11-02T03:34:40.672Z,100120.77
2022-11-02T03:35:49.270Z,100107.88
2022-11-02T03:37:05.668Z,100113.03
2022-11-02T03:38:15.262Z,100124.36
2022-11-02T03:40:35.249Z,100110.04
2022-11-02T03:41:40.999Z,100118.13
2022-11-02T03:42:44.714Z,100115.58
2022-11-02T03:43:50.421Z,100113.03
2022-11-02T03:44:59.027Z,100120.05
2022-11-02T03:46:04.091Z,100120.91
2022-11-02T03:47:09.823Z,100114.80
2022-11-02T03:48:14.230Z,100119.98
2022-11-02T03:49:20.044Z,100115.61
2022-11-02T03:50:24.592Z,100115.61
2022-11-02T03:51:29.429Z,100117.30
2022-11-02T03:52:34.863Z,100114.69
2022-11-02T03:53:43.333Z,100109.47
2022-11-02T03:54:55.089Z,100100.81
2022-11-02T03:56:00.761Z,100110.41
2022-11-02T03:57:06.707Z,100113.88
2022-11-02T03:58:12.047Z,100100.09
2022-11-02T03:59:14.332Z,100105.42
2022-11-02T04:00:22.165Z,100105.42
2022-11-02T04:01:27.486Z,100103.66
2022-11-02T04:02:30.401Z,100106.30
2022-11-02T04:03:35.966Z,100108.92
2022-11-02T04:06:01.315Z,100108.65
2022-11-02T04:07:03.342Z,100114.95
2022-11-02T04:08:08.185Z,100100.98
2022-11-02T04:09:11.758Z,100108.82
2022-11-02T04:10:14.467Z,100103.59
2022-11-02T04:11:16.362Z,100098.27
2022-11-02T04:12:18.244Z,100109.47
2022-11-02T04:13:22.983Z,100101.73
2022-11-02T04:14:26.421Z,100106.11
2022-11-02T04:15:29.800Z,100097.34
2022-11-02T04:16:31.787Z,100099.93
2022-11-02T04:17:33.692Z,100102.58
2022-11-02T04:18:35.691Z,100099.15
2022-11-02T04:19:37.707Z,100096.60
2022-11-02T04:20:40.310Z,100097.52
2022-11-02T04:21:42.268Z,100094.94
2022-11-02T04:22:44.155Z,100090.53
2022-11-02T04:23:47.227Z,100094.02
2022-11-02T04:24:49.118Z,100088.69
2022-11-02T04:25:56.522Z,100084.48
2022-11-02T04:26:58.575Z,100080.89
2022-11-02T04:28:10.893Z,100080.89
2022-11-02T04:29:12.985Z,100087.87
2022-11-02T04:30:18.039Z,100087.87
2022-11-02T04:31:19.986Z,100087.03
2022-11-02T04:32:22.844Z,100078.31
2022-11-02T04:33:25.097Z,100088.77
2022-11-02T04:34:26.966Z,100092.29
2022-11-02T04:35:29.431Z,100084.41
2022-11-02T04:36:32.064Z,100090.49
2022-11-02T04:37:41.048Z,100087.98
2022-11-02T04:38:42.973Z,100082.89
2022-11-02T04:39:44.875Z,100080.92
2022-11-02T04:40:47.639Z,100078.23
2022-11-02T04:41:51.020Z,100073.02
2022-11-02T04:42:53.455Z,100068.56
2022-11-02T04:43:55.725Z,100064.02
2022-11-02T04:44:57.633Z,100062.28
2022-11-02T04:45:59.508Z,100058.68
2022-11-02T04:47:01.519Z,100058.75
2022-11-02T04:48:06.814Z,100060.44
2022-11-02T04:49:12.163Z,100058.64
2022-11-02T04:50:15.162Z,100051.68
2022-11-02T04:51:18.198Z,100053.38
2022-11-02T04:52:20.151Z,100055.07
2022-11-02T04:53:23.863Z,100049.00
2022-11-02T04:54:25.760Z,100050.69
2022-11-02T04:55:29.164Z,100052.49
2022-11-02T04:56:33.307Z,100053.34
2022-11-02T04:57:35.267Z,100055.84
2022-11-02T04:58:37.364Z,100049.70
2022-11-02T04:59:39.278Z,100057.54
2022-11-02T05:00:41.262Z,100051.43
2022-11-02T05:01:43.844Z,100054.96
2022-11-02T05:02:50.199Z,100059.41
2022-11-02T05:03:54.429Z,100059.27
2022-11-02T05:04:56.328Z,100058.39
2022-11-02T05:05:58.249Z,100055.03
2022-11-02T05:07:01.665Z,100057.64
2022-11-02T05:08:04.700Z,100054.92
2022-11-02T05:09:09.646Z,100060.48
2022-11-02T05:10:12.058Z,100056.76
2022-11-02T05:11:14.376Z,100054.75
2022-11-02T05:12:16.296Z,100058.99
2022-11-02T05:13:18.177Z,100052.04
2022-11-02T05:14:20.077Z,100054.25
2022-11-02T05:15:22.061Z,100057.61
2022-11-02T05:16:25.555Z,100051.30
2022-11-02T05:17:27.466Z,100053.77
2022-11-02T05:18:29.950Z,100064.15
2022-11-02T05:19:31.836Z,100057.13
2022-11-02T05:20:33.837Z,100055.36
2022-11-02T05:21:35.712Z,100055.32
2022-11-02T05:22:42.922Z,100054.44
2022-11-02T05:23:44.975Z,100057.02
2022-11-02T05:24:47.220Z,100063.87
2022-11-02T05:27:06.587Z,100045.39
2022-11-02T05:28:08.480Z,100053.52
2022-11-02T05:29:10.416Z,100056.17
2022-11-02T05:30:13.208Z,100053.45
2022-11-02T05:31:15.100Z,100060.41
2022-11-02T05:32:17.021Z,100064.08
2022-11-02T05:33:20.657Z,100060.59
2022-11-02T05:34:22.962Z,100057.90
2022-11-02T05:35:24.957Z,100056.91
2022-11-02T05:36:26.944Z,100053.45
2022-11-02T05:37:28.844Z,100050.80
2022-11-02T05:38:30.753Z,100050.02
2022-11-02T05:39:32.748Z,100046.38
2022-11-02T05:40:37.527Z,100048.89
2022-11-02T05:41:43.161Z,100049.91
2022-11-02T05:42:47.239Z,100048.08
2022-11-02T05:43:49.143Z,100051.43
2022-11-02T05:44:51.036Z,100046.27
2022-11-02T05:47:07.134Z,100049.58
2022-11-02T05:48:10.013Z,100054.05
2022-11-02T05:49:11.928Z,100051.98
2022-11-02T05:50:14.726Z,100048.55
2022-11-02T05:51:16.972Z,100058.71
2022-11-02T05:52:18.874Z,100052.70
2022-11-02T05:53:20.761Z,100057.94
2022-11-02T05:54:23.740Z,100050.75
2022-11-02T05:55:26.038Z,100057.75
2022-11-02T05:56:28.052Z,100061.14
2022-11-02T05:57:29.955Z,100063.17
2022-11-02T05:58:33.516Z,100062.98
2022-11-02T05:59:35.481Z,100065.56
2022-11-02T06:00:37.948Z,100061.72
2022-11-02T06:01:40.050Z,100067.80
2022-11-02T06:02:43.398Z,100066.11
2022-11-02T06:03:49.058Z,100065.17
2022-11-02T06:04:49.205Z,100060.02
2022-11-02T06:06:02.662Z,100067.10
2022-11-02T06:07:04.595Z,100062.67
2022-11-02T06:08:06.591Z,100072.30
2022-11-02T06:09:09.027Z,100074.80
2022-11-02T06:10:11.532Z,100064.37
2022-11-02T06:11:15.051Z,100067.59
2022-11-02T06:12:17.484Z,100071.02
2022-11-02T06:13:19.704Z,100069.30
2022-11-02T06:14:21.640Z,100074.45
2022-11-02T06:15:26.569Z,100068.98
2022-11-02T06:16:29.132Z,100068.94
2022-11-02T06:17:39.144Z,100068.94
2022-11-02T06:18:44.148Z,100075.50
2022-11-02T06:19:46.105Z,100075.42
2022-11-02T06:20:48.101Z,100075.42
2022-11-02T06:21:50.003Z,100072.72
2022-11-02T06:22:51.974Z,100073.44
2022-11-02T06:23:54.128Z,100080.32
2022-11-02T06:24:56.626Z,100072.30
2022-11-02T06:26:00.021Z,100073.91
2022-11-02T06:27:04.130Z,100072.89
2022-11-02T06:28:06.054Z,100073.52
2022-11-02T06:29:07.951Z,100063.48
2022-11-02T06:30:11.393Z,100077.17
2022-11-02T06:31:13.493Z,100070.02
2022-11-02T06:32:15.430Z,100072.68
2022-11-02T06:33:19.292Z,100065.16
2022-11-02T06:34:21.537Z,100071.37
2022-11-02T06:35:23.453Z,100069.18
2022-11-02T06:36:25.460Z,100069.37
2022-11-02T06:37:27.365Z,100067.36
2022-11-02T06:38:29.351Z,100069.79
2022-11-02T06:39:31.304Z,100063.42
2022-11-02T06:40:33.443Z,100075.34
2022-11-02T06:41:35.465Z,100068.88
2022-11-02T06:42:44.892Z,100069.38
2022-11-02T06:43:42.188Z,100070.27
2022-11-02T06:44:44.092Z,100071.84
2022-11-02T06:45:47.720Z,100071.98
2022-11-02T06:46:49.740Z,100061.05
2022-11-02T06:47:51.691Z,100075.50
2022-11-02T06:48:53.561Z,100079.75
2022-11-02T06:49:55.455Z,100072.25
2022-11-02T06:50:57.459Z,100076.25
2022-11-02T06:51:59.329Z,100072.37
2022-11-02T06:53:01.511Z,100074.41
2022-11-02T06:54:08.460Z,100074.20
2022-11-02T06:55:08.613Z,100078.45
2022-11-02T06:56:10.764Z,100076.61
2022-11-02T06:57:12.654Z,100068.29
2022-11-02T06:58:14.522Z,100076.73
2022-11-02T06:59:16.404Z,100065.55
2022-11-02T07:00:22.798Z,100072.84
2022-11-02T07:01:23.756Z,100073.45
2022-11-02T07:02:26.098Z,100073.91
2022-11-02T07:03:29.071Z,100070.75
2022-11-02T07:04:32.655Z,100073.03
2022-11-02T07:05:36.578Z,100064.05
2022-11-02T07:06:38.972Z,100067.45
2022-11-02T07:07:40.897Z,100066.69
2022-11-02T07:08:43.843Z,100064.36
2022-11-02T07:09:45.746Z,100066.93
2022-11-02T07:10:48.787Z,100065.20
2022-11-02T07:11:50.680Z,100064.32
2022-11-02T07:12:54.416Z,100064.32
2022-11-02T07:13:56.329Z,100068.45
2022-11-02T07:14:58.235Z,100061.63
2022-11-02T07:16:00.134Z,100061.44
2022-11-02T07:17:02.023Z,100068.53
2022-11-02T07:18:05.006Z,100060.82
2022-11-02T07:19:06.940Z,100060.82
2022-11-02T07:20:10.477Z,100060.28
2022-11-02T07:21:12.461Z,100038.25
2022-11-02T07:22:14.464Z,100057.75
2022-11-02T07:23:17.439Z,100065.22
2022-11-02T07:24:19.454Z,100052.58
2022-11-02T07:25:21.888Z,100054.61
2022-11-02T07:26:24.303Z,100062.25
2022-11-02T07:27:26.194Z,100051.82
2022-11-02T07:28:28.175Z,100055.89
2022-11-02T07:29:30.112Z,100059.81
2022-11-02T07:30:33.889Z,100064.66
2022-11-02T07:31:35.819Z,100059.48
2022-11-02T07:32:45.248Z,100067.36
2022-11-02T07:33:47.179Z,100062.30
2022-11-02T07:34:49.113Z,100062.81
2022-11-02T07:35:50.981Z,100063.55
2022-11-02T07:36:54.924Z,100058.00
2022-11-02T07:37:59.403Z,100035.51
2022-11-02T07:39:01.344Z,100045.77
2022-11-02T07:40:05.571Z,100050.14
2022-11-02T07:41:08.200Z,100055.45
2022-11-02T07:42:10.102Z,100049.52
2022-11-02T07:43:12.304Z,100047.98
2022-11-02T07:44:14.184Z,100053.22
2022-11-02T07:45:16.080Z,100049.81
2022-11-02T07:46:18.077Z,100043.47
2022-11-02T07:47:19.985Z,100043.62
2022-11-02T07:48:22.005Z,100048.13
2022-11-02T07:49:24.669Z,100044.09
2022-11-02T07:50:26.689Z,100055.92
2022-11-02T07:51:28.878Z,100040.96
2022-11-02T07:52:30.759Z,100048.95
2022-11-02T07:53:33.628Z,100043.28
2022-11-02T07:54:37.652Z,100043.97
2022-11-02T07:55:39.733Z,100039.73
2022-11-02T07:56:44.788Z,100042.38
2022-11-02T07:57:57.618Z,100039.50
2022-11-02T07:58:59.644Z,100033.98
2022-11-02T08:00:01.700Z,100043.52
2022-11-02T08:01:03.779Z,100040.34
2022-11-02T08:02:05.763Z,100039.11
2022-11-02T08:03:10.225Z,100037.63
2022-11-02T08:04:12.601Z,100044.02
2022-11-02T08:05:15.265Z,100041.53
2022-11-02T08:06:18.058Z,100041.59
2022-11-02T08:07:19.967Z,100037.37
2022-11-02T08:08:23.584Z,100037.58
2022-11-02T08:09:25.517Z,100032.30
2022-11-02T08:10:33.914Z,100033.30
2022-11-02T08:11:34.152Z,100031.97
2022-11-02T08:12:36.737Z,100025.61
2022-11-02T08:13:39.017Z,100028.70
2022-11-02T08:14:42.739Z,100030.89
2022-11-02T08:15:50.664Z,100032.25
2022-11-02T08:16:55.073Z,100029.52
2022-11-02T08:18:02.291Z,100038.06
2022-11-02T08:19:04.926Z,100033.41
2022-11-02T08:20:08.852Z,100041.25
2022-11-02T08:21:10.796Z,100033.09
2022-11-02T08:22:12.689Z,100037.92
2022-11-02T08:23:17.581Z,100036.70
2022-11-02T08:24:19.554Z,100037.31
2022-11-02T08:25:24.003Z,100037.25
2022-11-02T08:26:26.022Z,100033.45
2022-11-02T08:27:27.930Z,100037.47
2022-11-02T08:28:32.122Z,100037.63
2022-11-02T08:29:34.029Z,100034.83
2022-11-02T08:30:37.517Z,100035.44
2022-11-02T08:31:39.460Z,100038.95
2022-11-02T08:32:41.709Z,100033.01
2022-11-02T08:33:45.054Z,100041.81
2022-11-02T08:34:47.077Z,100035.49
2022-11-02T08:35:49.650Z,100036.81
2022-11-02T08:36:51.664Z,100035.73
2022-11-02T08:37:55.067Z,100040.30
2022-11-02T08:38:56.967Z,100035.62
2022-11-02T08:39:58.868Z,100032.38
2022-11-02T08:41:00.880Z,100036.22
2022-11-02T08:42:03.166Z,100039.58
2022-11-02T08:43:08.792Z,100033.17
2022-11-02T08:44:10.726Z,100028.41
2022-11-02T08:45:12.758Z,100030.97
2022-11-02T08:46:16.368Z,100038.14
2022-11-02T08:47:18.755Z,100031.30
2022-11-02T08:48:20.749Z,100028.81
2022-11-02T08:49:22.717Z,100029.73
2022-11-02T08:50:25.795Z,100032.98
2022-11-02T08:51:28.926Z,100024.80
2022-11-02T08:52:40.505Z,100029.48
2022-11-02T08:53:44.655Z,100023.09
2022-11-02T08:54:45.846Z,100018.35
2022-11-02T08:55:47.715Z,100023.80
2022-11-02T08:56:49.854Z,100026.88
2022-11-02T08:57:56.897Z,100022.28
2022-11-02T08:58:58.952Z,100031.13
2022-11-02T09:00:01.089Z,100026.47
2022-11-02T09:01:02.975Z,100025.02
2022-11-02T09:02:05.166Z,100030.31
2022-11-02T09:03:12.188Z,100024.27
2022-11-02T09:04:15.774Z,100026.03
2022-11-02T09:05:18.183Z,100020.16
2022-11-02T09:06:20.364Z,100003.25
2022-11-02T09:07:22.438Z,100021.78
2022-11-02T09:09:26.177Z,100018.36
2022-11-02T09:10:30.108Z,100019.22
2022-11-02T09:11:32.080Z,100021.45
2022-11-02T09:12:33.957Z,100016.67
2022-11-02T09:13:38.585Z,100016.92
2022-11-02T09:14:41.073Z,100015.63
2022-11-02T09:15:43.507Z,100017.02
2022-11-02T09:16:45.545Z,100015.13
2022-11-02T09:17:49.090Z,100020.25
2022-11-02T09:18:51.004Z,100010.09
2022-11-02T09:19:52.883Z,100013.41
2022-11-02T09:20:56.417Z,100010.34
2022-11-02T09:21:59.591Z,100003.63
2022-11-02T09:23:02.104Z,100011.05
2022-11-02T09:24:05.039Z,99998.67
2022-11-02T09:25:07.937Z,100008.83
2022-11-02T09:26:10.171Z,100004.38
2022-11-02T09:27:12.072Z,100009.34
2022-11-02T09:28:13.978Z,100004.29
2022-11-02T09:29:15.906Z,100010.34
2022-11-02T09:30:18.186Z,100009.06
2022-11-02T09:31:20.090Z,100008.28
2022-11-02T09:32:22.826Z,100009.41
2022-11-02T09:33:24.724Z,100004.20
2022-11-02T09:34:26.613Z,100005.72
2022-11-02T09:35:31.744Z,100002.05
2022-11-02T09:36:34.023Z,100001.47
2022-11-02T09:37:36.401Z,100007.77
2022-11-02T09:38:38.311Z,100000.87
2022-11-02T09:39:40.253Z,99994.17
2022-11-02T09:41:00.600Z,99999.39
2022-11-02T09:43:37.412Z,99992.83
2022-11-02T09:45:00.499Z,99994.58
2022-11-02T09:46:09.378Z,99997.63
2022-11-02T09:48:26.801Z,100003.59
2022-11-02T09:49:26.273Z,99999.69
2022-11-02T09:51:58.274Z,99993.41
2022-11-02T09:53:03.943Z,99998.59
2022-11-02T09:54:35.960Z,99996.02
2022-11-02T09:55:39.585Z,99993.16
2022-11-02T09:56:45.342Z,99989.19
2022-11-02T09:57:50.763Z,99993.55
2022-11-02T09:59:03.496Z,99994.04
2022-11-02T10:00:09.615Z,99993.59
2022-11-02T10:01:15.341Z,99992.45
2022-11-02T10:02:39.066Z,99995.19
2022-11-02T10:03:47.709Z,100002.86
2022-11-02T10:05:28.281Z,99993.80
2022-11-02T10:06:33.208Z,100003.07
2022-11-02T10:08:00.251Z,99992.38
2022-11-02T10:09:09.247Z,99986.99
2022-11-02T10:10:26.954Z,99985.87
2022-11-02T10:11:53.760Z,99994.20
2022-11-02T10:13:16.449Z,99987.28
2022-11-02T10:14:22.171Z,99989.27
2022-11-02T10:15:42.956Z,99985.59
2022-11-02T10:16:55.052Z,99989.09
2022-11-02T10:17:59.600Z,99990.50
2022-11-02T10:19:03.671Z,99987.09
2022-11-02T10:20:27.429Z,99988.25
2022-11-02T10:21:35.142Z,99987.66
2022-11-02T10:22:41.199Z,99993.06
2022-11-02T10:23:54.002Z,99979.99
2022-11-02T10:24:59.387Z,99990.41
2022-11-02T10:26:02.742Z,99983.42
2022-11-02T10:27:13.866Z,99984.83
2022-11-02T10:28:18.960Z,99986.45
2022-11-02T10:30:36.745Z,99985.67
2022-11-02T10:31:38.880Z,99995.06
2022-11-02T10:33:43.933Z,99997.52
2022-11-02T10:34:58.491Z,99995.80
2022-11-02T10:36:22.145Z,99997.25
2022-11-02T10:37:32.404Z,99994.41
2022-11-02T10:38:49.963Z,99984.45
2022-11-02T10:40:23.711Z,99989.85
2022-11-02T10:41:29.404Z,99990.97
2022-11-02T10:42:35.334Z,99983.02
2022-11-02T10:43:48.226Z,99982.55
2022-11-02T10:45:06.861Z,99985.20
2022-11-02T10:47:56.600Z,99983.70
2022-11-02T10:49:14.610Z,99977.25
2022-11-02T10:52:04.891Z,99977.84
2022-11-02T10:53:35.314Z,99976.78
2022-11-02T10:54:20.581Z,99981.52
2022-11-02T10:56:43.175Z,99979.06
2022-11-02T10:57:45.583Z,99992.13
2022-11-02T10:59:03.105Z,99982.36
2022-11-02T11:00:31.612Z,99980.77
2022-11-02T11:01:35.065Z,99993.84
2022-11-02T11:02:37.106Z,99977.75
2022-11-02T11:04:03.083Z,99980.09
2022-11-02T11:05:13.596Z,99987.30
2022-11-02T11:06:16.677Z,99983.05
2022-11-02T11:08:44.259Z,99982.18
2022-11-02T11:09:56.314Z,99992.13
2022-11-02T11:11:18.904Z,99987.77
2022-11-02T11:12:33.442Z,99984.17
2022-11-02T11:15:53.863Z,99989.30
2022-11-02T11:19:39.976Z,99986.08
2022-11-02T11:20:36.226Z,99980.58
2022-11-02T11:21:42.471Z,99977.05
2022-11-02T11:22:44.440Z,99985.30
2022-11-02T11:23:46.335Z,99981.70
2022-11-02T11:24:48.351Z,99983.02
2022-11-02T11:27:20.716Z,99980.34
2022-11-02T11:28:31.752Z,99986.63
2022-11-02T11:29:36.979Z,99983.42
2022-11-02T11:30:58.900Z,99986.83
2022-11-02T11:31:43.351Z,99981.33
2022-11-02T11:32:47.547Z,99983.42
2022-11-02T11:33:57.823Z,99984.92
2022-11-02T11:35:02.887Z,99986.25
2022-11-02T11:36:07.526Z,99979.23
2022-11-02T11:37:14.233Z,99977.33
2022-11-02T11:38:22.777Z,99983.51
2022-11-02T11:39:30.009Z,99975.64
2022-11-02T11:40:38.955Z,99972.22
2022-11-02T11:41:43.386Z,99976.96
2022-11-02T11:42:48.097Z,99975.64
2022-11-02T11:43:51.912Z,99970.15
2022-11-02T11:45:23.568Z,99973.38
2022-11-02T11:46:41.651Z,99967.69
2022-11-02T11:47:45.067Z,99967.78
2022-11-02T11:48:50.843Z,99960.58
2022-11-02T11:50:08.643Z,99963.13
2022-11-02T11:51:01.872Z,99964.06
2022-11-02T11:52:05.180Z,99959.92
2022-11-02T11:53:19.870Z,99968.63
2022-11-02T11:55:55.095Z,99977.05
2022-11-02T11:57:00.766Z,99969.38
2022-11-02T11:58:08.884Z,99964.35
2022-11-02T11:59:23.736Z,99972.41
2022-11-02T12:00:28.012Z,99968.16
2022-11-02T12:01:38.773Z,99970.72
2022-11-02T12:02:44.544Z,99970.53
2022-11-02T12:03:59.270Z,99968.07
2022-11-02T12:05:16.597Z,99963.52
2022-11-02T12:06:43.811Z,99969.98
2022-11-02T12:08:06.445Z,99968.07
2022-11-02T12:09:18.286Z,99975.84
2022-11-02T12:10:51.768Z,99973.47
2022-11-02T12:12:18.906Z,99971.84
2022-11-02T12:13:47.758Z,99970.64
2022-11-02T12:15:13.336Z,99975.84
2022-11-02T12:16:28.514Z,99971.66
2022-11-02T12:17:43.518Z,99970.08
2022-11-02T12:19:09.084Z,99978.31
2022-11-02T12:20:20.784Z,99983.61
2022-11-02T12:21:35.872Z,99977.53
2022-11-02T12:22:50.727Z,99980.96
2022-11-02T12:24:04.780Z,99978.50
2022-11-02T12:25:31.688Z,99990.69
2022-11-02T12:28:12.562Z,99989.66
2022-11-02T12:29:47.449Z,99985.02
2022-11-02T12:30:59.337Z,99983.23
2022-11-02T12:32:24.767Z,99988.72
2022-11-02T12:33:42.560Z,99995.70
2022-11-02T12:35:27.368Z,99994.20
2022-11-02T12:36:20.480Z,100000.63
2022-11-02T12:37:40.328Z,99996.08
2022-11-02T12:38:58.777Z,99991.74
2022-11-02T12:40:31.979Z,99989.09
2022-11-02T12:41:55.764Z,100001.59
2022-11-02T12:43:10.026Z,99992.02
2022-11-02T12:44:18.679Z,99988.62
2022-11-02T12:45:42.443Z,99995.97
2022-11-02T12:47:00.730Z,99994.94
2022-11-02T12:48:05.517Z,100000.42
2022-11-02T12:49:40.590Z,100002.14
2022-11-02T12:50:54.952Z,99997.95
2022-11-02T12:52:15.697Z,99997.02
2022-11-02T12:53:40.708Z,100009.22
2022-11-02T12:54:50.133Z,100006.38
2022-11-02T12:55:55.827Z,100001.66
2022-11-02T12:56:58.188Z,100013.85
2022-11-02T12:58:07.218Z,100001.05
2022-11-02T13:00:32.265Z,100010.84
2022-11-02T13:01:41.421Z,100016.20
2022-11-02T13:03:03.207Z,100010.63
2022-11-02T14:27:44.036Z,100034.13
2022-11-02T14:28:46.060Z,100037.16
2022-11-02T14:29:52.179Z,100045.23
2022-11-02T14:31:07.145Z,100041.75
2022-11-02T14:32:18.802Z,100051.52
2022-11-02T14:33:41.466Z,100037.47
2022-11-02T14:34:56.250Z,100044.63
2022-11-02T14:36:01.948Z,100046.47
2022-11-02T14:37:25.558Z,100050.98
2022-11-02T14:39:59.548Z,100043.59
2022-11-02T14:41:20.685Z,100051.22